createdAt,value
2019-01-29T00:01:23.335Z,1.00
2019-01-29T00:03:27.127Z,1.00
2019-01-29T00:05:32.420Z,1.00
2019-01-29T00:07:36.179Z,1.00
2019-01-29T00:09:39.956Z,0.90
2019-01-29T00:11:43.626Z,0.90
2019-01-29T00:13:47.277Z,0.90
2019-01-29T00:15:51.010Z,0.90
2019-01-29T00:17:54.590Z,0.90
2019-01-29T00:19:58.208Z,0.90
2019-01-29T00:22:01.800Z,0.80
2019-01-29T00:24:05.568Z,0.80
2019-01-29T00:26:09.322Z,0.80
2019-01-29T00:28:13.025Z,0.80
2019-01-29T00:30:16.883Z,0.80
2019-01-29T00:32:20.502Z,0.80
2019-01-29T00:34:24.272Z,0.80
2019-01-29T00:36:30.783Z,0.80
2019-01-29T00:38:34.434Z,0.80
2019-01-29T00:40:38.308Z,0.70
2019-01-29T00:42:42.057Z,0.70
2019-01-29T00:44:45.794Z,0.70
2019-01-29T00:46:49.566Z,0.70
2019-01-29T00:48:54.750Z,0.70
2019-01-29T00:50:58.508Z,0.70
2019-01-29T00:53:02.095Z,0.70
2019-01-29T00:55:09.356Z,0.70
2019-01-29T00:57:13.042Z,0.70
2019-01-29T00:59:16.711Z,0.70
2019-01-29T01:01:20.534Z,0.70
2019-01-29T01:03:24.292Z,0.70
2019-01-29T01:05:28.060Z,0.70
2019-01-29T01:07:31.788Z,0.70
2019-01-29T01:09:35.560Z,0.70
2019-01-29T01:11:39.280Z,0.70
2019-01-29T01:13:42.943Z,0.60
2019-01-29T01:15:46.719Z,0.60
2019-01-29T01:17:50.439Z,0.60
2019-01-29T01:19:54.107Z,0.60
2019-01-29T01:21:57.751Z,0.70
2019-01-29T01:24:01.402Z,0.60
2019-01-29T01:26:05.174Z,0.60
2019-01-29T01:28:08.908Z,0.60
2019-01-29T01:30:17.598Z,0.60
2019-01-29T01:32:21.455Z,0.60
2019-01-29T01:34:25.120Z,0.60
2019-01-29T01:36:28.753Z,0.60
2019-01-29T01:38:34.038Z,0.60
2019-01-29T01:40:37.753Z,0.70
2019-01-29T01:42:41.534Z,0.60
2019-01-29T01:44:45.276Z,0.70
2019-01-29T01:46:49.028Z,0.60
2019-01-29T01:48:52.741Z,0.70
2019-01-29T01:50:56.506Z,0.70
2019-01-29T01:53:00.237Z,0.60
2019-01-29T01:55:04.679Z,0.60
2019-01-29T01:57:08.442Z,0.60
2019-01-29T01:59:12.237Z,0.60
2019-01-29T02:01:16.233Z,0.60
2019-01-29T02:03:19.812Z,0.60
2019-01-29T02:05:23.544Z,0.50
2019-01-29T02:07:27.225Z,0.50
2019-01-29T02:09:31.012Z,0.60
2019-01-29T02:11:34.677Z,0.60
2019-01-29T02:13:38.338Z,0.60
2019-01-29T02:15:41.953Z,0.60
2019-01-29T02:17:45.641Z,0.60
2019-01-29T02:19:49.370Z,0.60
2019-01-29T02:21:53.050Z,0.60
2019-01-29T02:23:56.793Z,0.60
2019-01-29T02:26:00.559Z,0.60
2019-01-29T02:28:04.233Z,0.70
2019-01-29T02:30:19.559Z,0.70
2019-01-29T02:32:23.339Z,0.60
2019-01-29T02:34:26.944Z,0.60
2019-01-29T02:36:30.675Z,0.60
2019-01-29T02:38:34.251Z,0.60
2019-01-29T02:40:38.012Z,0.60
2019-01-29T02:42:41.618Z,0.60
2019-01-29T02:44:45.214Z,0.60
2019-01-29T02:46:48.846Z,0.60
2019-01-29T02:48:52.580Z,0.60
2019-01-29T02:50:56.298Z,0.60
2019-01-29T02:52:59.906Z,0.70
2019-01-29T02:55:03.882Z,0.70
2019-01-29T02:57:07.571Z,0.60
2019-01-29T02:59:11.299Z,0.60
2019-01-29T03:01:14.971Z,0.60
2019-01-29T03:03:18.738Z,0.60
2019-01-29T03:05:22.480Z,0.50
2019-01-29T03:07:26.242Z,0.50
2019-01-29T03:09:29.821Z,0.50
2019-01-29T03:11:33.603Z,0.60
2019-01-29T03:13:37.378Z,0.60
2019-01-29T03:15:41.101Z,0.50
2019-01-29T03:17:44.805Z,0.60
2019-01-29T03:19:48.518Z,0.50
2019-01-29T03:21:53.759Z,0.60
2019-01-29T03:23:58.010Z,0.70
2019-01-29T03:26:01.679Z,0.60
2019-01-29T03:28:05.427Z,0.60
2019-01-29T03:30:14.404Z,0.60
2019-01-29T03:32:18.077Z,0.70
2019-01-29T03:34:21.761Z,0.80
2019-01-29T03:36:25.405Z,0.80
2019-01-29T03:38:29.115Z,0.80
2019-01-29T03:40:32.833Z,0.80
2019-01-29T03:42:36.556Z,0.80
2019-01-29T03:44:40.335Z,0.80
2019-01-29T03:46:43.991Z,0.80
2019-01-29T03:48:47.736Z,0.80
2019-01-29T03:50:51.481Z,0.80
2019-01-29T03:52:56.596Z,0.80
2019-01-29T03:55:00.352Z,0.80
2019-01-29T03:57:04.000Z,0.80
2019-01-29T03:59:07.669Z,0.70
2019-01-29T04:01:11.410Z,0.70
2019-01-29T04:03:15.086Z,0.70
2019-01-29T04:05:18.830Z,0.80
2019-01-29T04:07:22.498Z,0.80
2019-01-29T04:09:26.205Z,0.80
2019-01-29T04:11:29.855Z,0.80
2019-01-29T04:13:33.600Z,0.80
2019-01-29T04:15:37.593Z,0.70
2019-01-29T04:17:41.598Z,0.70
2019-01-29T04:19:45.661Z,0.80
2019-01-29T04:21:49.358Z,0.80
2019-01-29T04:23:53.124Z,0.70
2019-01-29T04:25:56.798Z,0.80
2019-01-29T04:28:00.374Z,0.80
2019-01-29T04:30:05.598Z,0.80
2019-01-29T04:32:09.377Z,0.80
2019-01-29T04:34:13.056Z,0.80
2019-01-29T04:36:16.667Z,0.70
2019-01-29T04:38:20.438Z,0.70
2019-01-29T04:40:24.180Z,0.70
2019-01-29T04:42:27.954Z,0.80
2019-01-29T04:44:31.686Z,0.70
2019-01-29T04:46:35.282Z,0.80
2019-01-29T04:48:38.949Z,0.80
2019-01-29T04:50:42.790Z,0.70
2019-01-29T04:52:46.513Z,0.70
2019-01-29T04:54:50.413Z,0.80
2019-01-29T04:56:54.058Z,0.80
2019-01-29T04:58:57.724Z,0.70
2019-01-29T05:01:01.490Z,0.60
2019-01-29T05:03:05.309Z,0.60
2019-01-29T05:05:11.962Z,0.60
2019-01-29T05:07:15.545Z,0.50
2019-01-29T05:09:19.189Z,0.60
2019-01-29T05:11:22.888Z,0.60
2019-01-29T05:13:26.534Z,0.50
2019-01-29T05:15:30.424Z,0.60
2019-01-29T05:17:34.117Z,0.60
2019-01-29T05:19:38.208Z,0.60
2019-01-29T05:21:41.961Z,0.50
2019-01-29T05:23:45.611Z,0.50
2019-01-29T05:25:49.385Z,0.40
2019-01-29T05:27:53.122Z,0.40
2019-01-29T05:29:58.345Z,0.40
2019-01-29T05:32:02.106Z,0.40
2019-01-29T05:34:05.783Z,0.50
2019-01-29T05:36:09.638Z,0.40
2019-01-29T05:38:13.520Z,0.40
2019-01-29T05:40:22.215Z,0.30
2019-01-29T05:42:25.946Z,0.30
2019-01-29T05:44:29.746Z,0.30
2019-01-29T05:46:33.491Z,0.30
2019-01-29T05:48:37.263Z,0.30
2019-01-29T05:50:41.260Z,0.20
2019-01-29T05:52:45.190Z,0.20
2019-01-29T05:54:48.989Z,0.20
2019-01-29T05:56:52.764Z,0.30
2019-01-29T05:58:56.411Z,0.30
2019-01-29T06:01:00.191Z,0.30
2019-01-29T06:03:03.987Z,0.40
2019-01-29T06:05:10.011Z,0.40
2019-01-29T06:07:13.928Z,0.30
2019-01-29T06:09:17.812Z,0.30
2019-01-29T06:11:22.275Z,0.30
2019-01-29T06:13:26.016Z,0.30
2019-01-29T06:15:29.814Z,0.30
2019-01-29T06:17:33.537Z,0.30
2019-01-29T06:19:37.208Z,0.30
2019-01-29T06:21:40.873Z,0.40
2019-01-29T06:23:44.649Z,0.40
2019-01-29T06:25:48.485Z,0.40
2019-01-29T06:27:53.392Z,0.40
2019-01-29T06:29:57.166Z,0.40
2019-01-29T06:32:00.917Z,0.40
2019-01-29T06:34:04.855Z,0.40
2019-01-29T06:36:10.700Z,0.50
2019-01-29T06:38:14.200Z,0.50
2019-01-29T06:40:20.358Z,0.50
2019-01-29T06:42:24.193Z,0.50
2019-01-29T06:44:28.285Z,0.60
2019-01-29T06:46:32.093Z,0.50
2019-01-29T06:48:35.901Z,0.50
2019-01-29T06:50:39.820Z,0.60
2019-01-29T06:52:43.686Z,0.60
2019-01-29T06:54:47.644Z,0.60
2019-01-29T06:56:51.485Z,0.60
2019-01-29T06:58:55.358Z,0.60
2019-01-29T07:00:59.684Z,0.60
2019-01-29T07:03:03.629Z,0.60
2019-01-29T07:05:08.371Z,0.60
2019-01-29T07:07:12.217Z,0.60
2019-01-29T07:09:16.056Z,0.70
2019-01-29T07:11:19.922Z,0.60
2019-01-29T07:13:24.077Z,0.60
2019-01-29T07:15:48.226Z,0.60
2019-01-29T07:17:52.118Z,0.60
2019-01-29T07:19:55.958Z,0.70
2019-01-29T07:21:59.831Z,0.70
2019-01-29T07:24:05.522Z,0.70
2019-01-29T07:26:09.465Z,0.70
2019-01-29T07:28:13.497Z,0.80
2019-01-29T07:30:17.566Z,0.80
2019-01-29T07:32:22.989Z,0.80
2019-01-29T07:34:26.801Z,0.80
2019-01-29T07:36:30.707Z,0.80
2019-01-29T07:38:34.603Z,0.80
2019-01-29T07:40:38.296Z,0.80
2019-01-29T07:42:42.013Z,0.80
2019-01-29T07:44:45.910Z,0.80
2019-01-29T07:46:49.691Z,0.80
2019-01-29T07:48:53.559Z,0.80
2019-01-29T07:50:57.407Z,0.80
2019-01-29T07:53:01.187Z,0.80
2019-01-29T07:55:07.472Z,0.80
2019-01-29T07:57:11.316Z,0.80
2019-01-29T07:59:15.139Z,0.80
2019-01-29T08:01:18.887Z,0.80
2019-01-29T08:03:22.749Z,0.80
2019-01-29T08:05:26.697Z,0.80
2019-01-29T08:07:31.790Z,0.90
2019-01-29T08:09:35.597Z,0.90
2019-01-29T08:11:39.296Z,1.00
2019-01-29T08:13:43.162Z,1.00
2019-01-29T08:15:47.067Z,1.00
2019-01-29T08:17:50.903Z,1.00
2019-01-29T08:19:54.871Z,1.00
2019-01-29T08:21:58.563Z,1.10
2019-01-29T08:24:02.348Z,1.10
2019-01-29T08:26:06.236Z,1.10
2019-01-29T08:28:10.031Z,1.10
2019-01-29T08:30:15.706Z,1.10
2019-01-29T08:32:19.371Z,1.10
2019-01-29T08:34:23.143Z,1.10
2019-01-29T08:36:27.072Z,1.20
2019-01-29T08:38:30.793Z,1.20
2019-01-29T08:40:34.580Z,1.20
2019-01-29T08:42:38.411Z,1.20
2019-01-29T08:44:42.261Z,1.30
2019-01-29T08:46:47.480Z,1.30
2019-01-29T08:48:51.320Z,1.40
2019-01-29T08:50:55.260Z,1.40
2019-01-29T08:52:59.060Z,1.40
2019-01-29T08:55:10.480Z,1.40
2019-01-29T08:57:09.057Z,1.50
2019-01-29T08:59:14.035Z,1.50
2019-01-29T09:01:17.974Z,1.50
2019-01-29T09:03:21.743Z,1.50
2019-01-29T09:05:25.511Z,1.50
2019-01-29T09:07:29.389Z,1.50
2019-01-29T09:09:33.126Z,1.50
2019-01-29T09:11:36.991Z,1.50
2019-01-29T09:13:40.877Z,1.60
2019-01-29T09:15:44.645Z,1.60
2019-01-29T09:17:48.858Z,1.60
2019-01-29T09:19:52.756Z,1.60
2019-01-29T09:21:56.572Z,1.70
2019-01-29T09:24:00.427Z,1.70
2019-01-29T09:26:04.315Z,1.70
2019-01-29T09:28:08.209Z,1.70
2019-01-29T09:30:14.698Z,1.70
2019-01-29T09:32:20.636Z,1.70
2019-01-29T09:34:24.398Z,1.70
2019-01-29T09:36:28.247Z,1.70
2019-01-29T09:38:32.140Z,1.60
2019-01-29T09:40:35.966Z,1.60
2019-01-29T09:42:39.808Z,1.70
2019-01-29T09:44:43.687Z,1.70
2019-01-29T09:46:47.452Z,1.70
2019-01-29T09:48:51.316Z,1.70
2019-01-29T09:50:55.089Z,1.70
2019-01-29T09:52:59.068Z,1.70
2019-01-29T09:55:03.010Z,1.70
2019-01-29T09:57:06.816Z,1.70
2019-01-29T09:59:10.628Z,1.70
2019-01-29T10:01:14.412Z,1.90
2019-01-29T10:03:18.307Z,1.90
2019-01-29T10:05:22.300Z,1.80
2019-01-29T10:07:26.325Z,1.90
2019-01-29T10:09:30.189Z,1.90
2019-01-29T10:11:33.903Z,2.00
2019-01-29T10:13:38.003Z,2.00
2019-01-29T10:15:41.881Z,2.00
2019-01-29T10:17:46.281Z,2.00
2019-01-29T10:19:50.140Z,2.10
2019-01-29T10:21:55.347Z,2.00
2019-01-29T10:23:59.258Z,2.10
2019-01-29T10:26:03.152Z,2.10
2019-01-29T10:28:07.757Z,2.10
2019-01-29T10:30:23.339Z,2.10
2019-01-29T10:32:27.718Z,2.10
2019-01-29T10:34:32.308Z,2.10
2019-01-29T10:36:36.521Z,2.20
2019-01-29T10:38:40.648Z,2.20
2019-01-29T10:40:44.505Z,2.20
2019-01-29T10:42:48.411Z,2.20
2019-01-29T10:44:52.267Z,2.20
2019-01-29T10:46:56.395Z,2.20
2019-01-29T10:49:00.250Z,2.30
2019-01-29T10:51:04.437Z,2.40
2019-01-29T10:53:08.442Z,2.40
2019-01-29T10:55:12.387Z,2.50
2019-01-29T10:57:16.310Z,2.50
2019-01-29T10:59:20.354Z,2.50
2019-01-29T11:01:24.335Z,2.60
2019-01-29T11:03:28.216Z,2.60
2019-01-29T11:05:32.467Z,2.60
2019-01-29T11:07:37.290Z,2.60
2019-01-29T11:09:41.171Z,2.60
2019-01-29T11:11:44.900Z,2.70
2019-01-29T11:13:49.567Z,2.70
2019-01-29T11:15:53.456Z,2.70
2019-01-29T11:17:57.813Z,2.80
2019-01-29T11:20:01.747Z,2.90
2019-01-29T11:22:06.075Z,3.00
2019-01-29T11:24:10.964Z,3.10
2019-01-29T11:26:14.918Z,3.20
2019-01-29T11:28:18.810Z,3.40
2019-01-29T11:30:25.541Z,3.50
2019-01-29T11:32:30.574Z,3.60
2019-01-29T11:34:34.770Z,3.60
2019-01-29T11:36:38.792Z,3.60
2019-01-29T11:38:43.685Z,3.60
2019-01-29T11:40:47.740Z,3.50
2019-01-29T11:42:51.667Z,3.50
2019-01-29T11:44:55.697Z,3.40
2019-01-29T11:46:59.593Z,3.30
2019-01-29T11:49:03.783Z,3.30
2019-01-29T11:51:07.952Z,3.30
2019-01-29T11:53:11.849Z,3.30
2019-01-29T11:55:15.731Z,3.20
2019-01-29T11:57:19.612Z,3.20
2019-01-29T11:59:23.526Z,3.20
2019-01-29T12:01:27.397Z,3.30
2019-01-29T12:03:31.304Z,3.30
2019-01-29T12:05:35.407Z,3.40
2019-01-29T12:07:39.318Z,3.40
2019-01-29T12:09:43.249Z,3.50
2019-01-29T12:11:47.224Z,3.50
2019-01-29T12:13:51.134Z,3.60
2019-01-29T12:15:56.723Z,3.60
2019-01-29T12:18:00.574Z,3.60
2019-01-29T12:20:07.419Z,3.70
2019-01-29T12:22:11.275Z,3.80
2019-01-29T12:24:16.399Z,3.90
2019-01-29T12:26:20.719Z,3.90
2019-01-29T12:28:24.559Z,4.00
2019-01-29T12:30:29.815Z,3.90
2019-01-29T12:32:34.199Z,3.90
2019-01-29T12:34:38.048Z,3.90
2019-01-29T12:36:41.944Z,3.90
2019-01-29T12:38:45.793Z,3.80
2019-01-29T12:40:49.751Z,3.80
2019-01-29T12:42:53.679Z,3.80
2019-01-29T12:44:57.522Z,3.70
2019-01-29T12:47:01.509Z,3.70
2019-01-29T12:49:05.611Z,3.70
2019-01-29T12:51:12.597Z,3.70
2019-01-29T12:53:18.101Z,3.70
2019-01-29T12:55:21.984Z,3.60
2019-01-29T12:57:25.993Z,3.70
2019-01-29T12:59:29.802Z,3.70
2019-01-29T13:01:33.736Z,3.60
2019-01-29T13:03:37.549Z,3.60
2019-01-29T13:05:41.432Z,3.60
2019-01-29T13:07:45.375Z,3.60
2019-01-29T13:09:49.246Z,3.50
2019-01-29T13:11:53.124Z,3.50
2019-01-29T13:13:57.040Z,3.50
2019-01-29T13:16:00.861Z,3.60
2019-01-29T13:18:05.398Z,3.70
2019-01-29T13:20:11.681Z,4.00
2019-01-29T13:22:15.591Z,4.30
2019-01-29T13:24:19.416Z,4.60
2019-01-29T13:26:29.896Z,4.60
2019-01-29T13:28:29.207Z,4.60
2019-01-29T13:30:37.533Z,4.70
2019-01-29T13:32:41.437Z,4.80
2019-01-29T13:34:45.458Z,5.20
2019-01-29T13:36:49.643Z,5.50
2019-01-29T13:38:53.540Z,5.80
2019-01-29T13:40:57.370Z,5.90
2019-01-29T13:43:01.503Z,5.80
2019-01-29T13:45:08.321Z,5.80
2019-01-29T13:47:12.547Z,5.90
2019-01-29T13:49:16.461Z,6.00
2019-01-29T13:51:20.298Z,5.80
2019-01-29T13:53:24.419Z,5.70
2019-01-29T13:55:29.643Z,5.60
2019-01-29T13:57:33.803Z,5.60
2019-01-29T13:59:37.625Z,5.70
2019-01-29T14:01:41.574Z,5.70
2019-01-29T14:03:45.412Z,5.80
2019-01-29T14:05:49.275Z,6.00
2019-01-29T14:07:54.346Z,6.30
2019-01-29T14:09:58.197Z,5.90
2019-01-29T14:12:02.102Z,5.80
2019-01-29T14:14:06.040Z,5.70
2019-01-29T14:16:09.867Z,5.50
2019-01-29T14:18:14.589Z,5.50
2019-01-29T14:20:19.658Z,5.40
2019-01-29T14:22:23.520Z,5.30
2019-01-29T14:24:28.276Z,5.40
2019-01-29T14:26:32.115Z,5.50
2019-01-29T14:28:36.589Z,5.40
2019-01-29T14:30:41.292Z,5.30
2019-01-29T14:32:45.846Z,5.10
2019-01-29T14:34:52.193Z,5.00
2019-01-29T14:36:56.077Z,5.00
2019-01-29T14:39:14.666Z,5.00
2019-01-29T14:41:18.668Z,4.90
2019-01-29T14:43:28.588Z,4.70
2019-01-29T14:45:33.588Z,4.60
2019-01-29T14:47:37.798Z,4.60
2019-01-29T14:49:41.777Z,4.60
2019-01-29T14:51:45.972Z,4.80
2019-01-29T14:53:49.714Z,4.80
2019-01-29T14:55:53.508Z,5.00
2019-01-29T14:57:57.246Z,5.10
2019-01-29T15:00:01.046Z,5.10
2019-01-29T15:02:04.832Z,5.10
2019-01-29T15:04:08.607Z,4.90
2019-01-29T15:06:12.519Z,4.70
2019-01-29T15:08:16.260Z,4.60
2019-01-29T15:10:23.398Z,4.50
2019-01-29T15:12:27.188Z,4.50
2019-01-29T15:14:30.919Z,4.40
2019-01-29T15:16:36.304Z,4.30
2019-01-29T15:18:41.921Z,4.20
2019-01-29T15:20:45.653Z,4.20
2019-01-29T15:22:49.374Z,4.10
2019-01-29T15:24:53.793Z,4.00
2019-01-29T15:27:05.072Z,3.80
2019-01-29T15:29:02.867Z,3.80
2019-01-29T15:31:06.788Z,3.80
2019-01-29T15:33:10.487Z,3.80
2019-01-29T15:35:14.424Z,3.80
2019-01-29T15:37:20.430Z,3.80
2019-01-29T15:39:24.260Z,3.70
2019-01-29T15:41:28.093Z,3.60
2019-01-29T15:43:32.089Z,3.50
2019-01-29T15:45:35.837Z,3.50
2019-01-29T15:47:39.481Z,3.40
2019-01-29T15:49:43.185Z,3.30
2019-01-29T15:51:46.901Z,3.30
2019-01-29T15:53:50.534Z,3.30
2019-01-29T15:55:54.371Z,3.30
2019-01-29T15:57:58.088Z,3.30
2019-01-29T16:00:01.960Z,3.30
2019-01-29T16:02:06.335Z,3.30
2019-01-29T16:04:09.994Z,3.20
2019-01-29T16:06:13.766Z,3.20
2019-01-29T16:08:17.493Z,3.10
2019-01-29T16:10:26.333Z,3.10
2019-01-29T16:12:30.146Z,3.00
2019-01-29T16:14:33.778Z,2.90
2019-01-29T16:16:37.495Z,2.90
2019-01-29T16:18:41.223Z,2.90
2019-01-29T16:20:45.034Z,2.90
2019-01-29T16:22:51.926Z,2.80
2019-01-29T16:24:56.853Z,2.80
2019-01-29T16:27:06.645Z,2.80
2019-01-29T16:29:06.320Z,2.70
2019-01-29T16:31:10.071Z,2.70
2019-01-29T16:33:13.874Z,2.60
2019-01-29T16:35:20.909Z,2.60
2019-01-29T16:37:24.638Z,2.50
2019-01-29T16:39:28.788Z,2.50
2019-01-29T16:41:32.585Z,2.50
2019-01-29T16:43:36.179Z,2.40
2019-01-29T16:45:39.915Z,2.40
2019-01-29T16:47:43.770Z,2.40
2019-01-29T16:49:47.420Z,2.40
2019-01-29T16:51:51.093Z,2.30
2019-01-29T16:53:54.760Z,2.30
2019-01-29T16:55:58.842Z,2.30
2019-01-29T16:58:02.526Z,2.30
2019-01-29T17:00:15.358Z,2.20
2019-01-29T17:02:19.113Z,2.10
2019-01-29T17:04:22.830Z,2.10
2019-01-29T17:06:26.702Z,2.10
2019-01-29T17:08:30.968Z,2.00
2019-01-29T17:10:35.089Z,2.00
2019-01-29T17:12:38.956Z,1.90
2019-01-29T17:14:43.195Z,1.90
2019-01-29T17:16:46.947Z,1.90
2019-01-29T17:18:52.049Z,1.90
2019-01-29T17:20:56.132Z,1.80
2019-01-29T17:23:01.022Z,1.80
2019-01-29T17:25:06.172Z,1.70
2019-01-29T17:27:09.970Z,1.70
2019-01-29T17:29:14.611Z,1.60
2019-01-29T17:31:18.379Z,1.60
2019-01-29T17:33:22.950Z,1.60
2019-01-29T17:35:26.704Z,1.50
2019-01-29T17:37:30.887Z,1.50
2019-01-29T17:39:34.662Z,1.40
2019-01-29T17:41:38.356Z,1.40
2019-01-29T17:43:42.113Z,1.40
2019-01-29T17:45:51.415Z,1.40
2019-01-29T17:47:56.829Z,1.30
2019-01-29T17:50:00.809Z,1.40
2019-01-29T17:52:04.988Z,1.30
2019-01-29T17:54:09.482Z,1.30
2019-01-29T17:56:14.143Z,1.30
2019-01-29T17:58:18.416Z,1.20
2019-01-29T18:00:31.018Z,1.10
2019-01-29T18:02:34.730Z,1.10
2019-01-29T18:04:38.819Z,1.10
2019-01-29T18:06:42.841Z,1.10
2019-01-29T18:08:49.808Z,1.10
2019-01-29T18:10:52.420Z,1.00
2019-01-29T18:12:56.419Z,1.00
2019-01-29T18:15:00.088Z,0.90
2019-01-29T18:17:04.315Z,0.90
2019-01-29T18:19:08.051Z,0.90
2019-01-29T18:21:12.612Z,0.90
2019-01-29T18:23:16.484Z,0.80
2019-01-29T18:25:20.575Z,0.90
2019-01-29T18:27:25.106Z,0.90
2019-01-29T18:29:29.604Z,0.90
2019-01-29T18:31:33.561Z,0.80
2019-01-29T18:33:37.591Z,0.80
2019-01-29T18:35:42.353Z,0.80
2019-01-29T18:37:48.532Z,0.80
2019-01-29T18:39:52.669Z,0.80
2019-01-29T18:41:58.374Z,0.70
2019-01-29T18:44:03.752Z,0.70
2019-01-29T18:46:09.106Z,0.70
2019-01-29T18:48:16.047Z,0.70
2019-01-29T18:50:24.572Z,0.60
2019-01-29T18:52:33.422Z,0.60
2019-01-29T18:54:40.270Z,0.60
2019-01-29T18:56:45.954Z,0.60
2019-01-29T18:58:51.600Z,0.50
2019-01-29T19:00:59.120Z,0.50
2019-01-29T19:03:08.211Z,0.50
2019-01-29T19:05:15.724Z,0.50
2019-01-29T19:07:23.002Z,0.40
2019-01-29T19:09:28.244Z,0.40
2019-01-29T19:11:33.022Z,0.40
2019-01-29T19:13:38.380Z,0.40
2019-01-29T19:15:44.694Z,0.40
2019-01-29T19:17:52.666Z,0.30
2019-01-29T19:19:58.598Z,0.30
2019-01-29T19:22:03.869Z,0.30
2019-01-29T19:24:08.451Z,0.30
2019-01-29T19:26:12.661Z,0.30
2019-01-29T19:28:22.210Z,0.30
2019-01-29T19:30:31.365Z,0.30
2019-01-29T19:32:36.381Z,0.30
2019-01-29T19:34:41.006Z,0.30
2019-01-29T19:36:46.468Z,0.30
2019-01-29T19:38:53.278Z,0.20
2019-01-29T19:40:59.107Z,0.30
2019-01-29T19:43:04.106Z,0.20
2019-01-29T19:45:14.546Z,0.20
2019-01-29T19:47:20.019Z,0.10
2019-01-29T19:49:24.289Z,0.10
2019-01-29T19:51:29.685Z,0.10
2019-01-29T19:53:37.785Z,0.10
2019-01-29T19:55:42.212Z,0.10
2019-01-29T19:57:47.418Z,0.10
2019-01-29T19:59:53.586Z,0.10
2019-01-29T20:01:58.207Z,0.10
2019-01-29T20:04:03.725Z,0.10
2019-01-29T20:06:09.477Z,0.10
2019-01-29T20:08:13.365Z,0.10
2019-01-29T20:10:19.607Z,0.10
2019-01-29T20:12:24.206Z,0.10
2019-01-29T20:14:30.534Z,0.10
2019-01-29T20:16:34.329Z,0.10
2019-01-29T20:18:38.063Z,0.00
2019-01-29T20:20:43.066Z,0.00
2019-01-29T20:22:47.771Z,0.00
2019-01-29T20:24:51.591Z,-0.10
2019-01-29T20:26:56.058Z,-0.10
2019-01-29T20:28:59.722Z,-0.20
2019-01-29T20:31:03.473Z,-0.10
2019-01-29T20:33:07.318Z,-0.10
2019-01-29T20:35:11.110Z,-0.10
2019-01-29T20:37:14.725Z,-0.10
2019-01-29T20:39:18.505Z,-0.10
2019-01-29T20:41:22.251Z,-0.10
2019-01-29T20:43:26.695Z,-0.10
2019-01-29T20:45:30.355Z,-0.10
2019-01-29T20:47:37.037Z,-0.10
2019-01-29T20:49:40.754Z,-0.10
2019-01-29T20:51:44.555Z,-0.10
2019-01-29T20:53:48.372Z,-0.10
2019-01-29T20:55:52.099Z,-0.10
2019-01-29T20:57:56.954Z,-0.20
2019-01-29T21:00:00.637Z,-0.20
2019-01-29T21:02:04.677Z,-0.20
2019-01-29T21:04:08.449Z,-0.10
2019-01-29T21:06:12.170Z,-0.10
2019-01-29T21:08:16.019Z,-0.10
2019-01-29T21:10:21.574Z,-0.10
2019-01-29T21:12:25.324Z,-0.10
2019-01-29T21:14:28.994Z,-0.10
2019-01-29T21:16:32.673Z,0.00
2019-01-29T21:18:36.446Z,0.00
2019-01-29T21:20:40.176Z,-0.10
2019-01-29T21:22:43.954Z,-0.10
2019-01-29T21:24:47.730Z,0.00
2019-01-29T21:26:52.828Z,0.00
2019-01-29T21:29:02.856Z,0.00
2019-01-29T21:31:01.924Z,0.00
2019-01-29T21:33:05.712Z,0.00
2019-01-29T21:35:09.516Z,0.00
2019-01-29T21:37:15.508Z,0.00
2019-01-29T21:39:19.271Z,0.00
2019-01-29T21:41:23.090Z,0.00
2019-01-29T21:43:26.905Z,0.00
2019-01-29T21:45:30.780Z,0.00
2019-01-29T21:47:34.426Z,0.00
2019-01-29T21:49:38.223Z,0.00
2019-01-29T21:51:41.959Z,0.00
2019-01-29T21:53:45.679Z,0.00
2019-01-29T21:55:49.590Z,0.00
2019-01-29T21:57:53.239Z,0.10
2019-01-29T21:59:56.992Z,0.00
2019-01-29T22:02:00.671Z,0.00
2019-01-29T22:04:04.438Z,0.00
2019-01-29T22:06:08.319Z,-0.10
2019-01-29T22:08:12.051Z,0.00
2019-01-29T22:10:16.936Z,0.00
2019-01-29T22:12:20.809Z,0.00
2019-01-29T22:14:24.557Z,0.00
2019-01-29T22:16:28.309Z,-0.10
2019-01-29T22:18:31.988Z,-0.10
2019-01-29T22:20:37.950Z,-0.10
2019-01-29T22:22:41.244Z,-0.10
2019-01-29T22:24:44.963Z,-0.10
2019-01-29T22:26:48.624Z,-0.10
2019-01-29T22:28:52.361Z,-0.10
2019-01-29T22:30:56.094Z,-0.20
2019-01-29T22:32:59.844Z,-0.20
2019-01-29T22:35:03.945Z,-0.20
2019-01-29T22:37:07.745Z,-0.20
2019-01-29T22:39:11.442Z,-0.10
2019-01-29T22:41:15.188Z,-0.10
2019-01-29T22:43:18.865Z,-0.20
2019-01-29T22:45:22.673Z,-0.10
2019-01-29T22:47:26.251Z,-0.10
2019-01-29T22:49:29.934Z,-0.10
2019-01-29T22:51:33.546Z,-0.10
2019-01-29T22:53:37.281Z,-0.20
2019-01-29T22:55:41.026Z,-0.20
2019-01-29T22:57:44.818Z,-0.20
2019-01-29T22:59:48.463Z,-0.20
2019-01-29T23:01:52.418Z,-0.20
2019-01-29T23:03:57.562Z,-0.20
2019-01-29T23:06:28.026Z,-0.10
2019-01-29T23:08:31.826Z,-0.20
2019-01-29T23:10:35.600Z,-0.20
2019-01-29T23:12:39.298Z,-0.20
2019-01-29T23:14:43.148Z,-0.20
2019-01-29T23:16:46.855Z,-0.30
2019-01-29T23:18:50.622Z,-0.30
2019-01-29T23:20:54.346Z,-0.20
2019-01-29T23:22:58.083Z,-0.30
2019-01-29T23:25:01.839Z,-0.30
2019-01-29T23:27:05.704Z,-0.30
2019-01-29T23:29:09.594Z,-0.30
2019-01-29T23:31:13.353Z,-0.30
2019-01-29T23:33:17.340Z,-0.30
2019-01-29T23:35:21.003Z,-0.30
2019-01-29T23:37:24.796Z,-0.40
2019-01-29T23:39:28.447Z,-0.30
2019-01-29T23:41:32.237Z,-0.30
2019-01-29T23:43:36.040Z,-0.30
2019-01-29T23:45:39.718Z,-0.30
2019-01-29T23:47:43.587Z,-0.30
2019-01-29T23:49:47.423Z,-0.30
2019-01-29T23:51:51.153Z,-0.20
2019-01-29T23:53:54.796Z,-0.30
2019-01-29T23:55:58.488Z,-0.20
2019-01-29T23:58:02.239Z,-0.30
